Time;durP1;ratioP1;P1;durP2;ratioP2;P2;SDS_P1;SDS_P2;PMS_P1;PMS_P2;Temp;Humidity;BMP_temperature;BMP_pressure;BME280_temperature;BME280_humidity;BME280_pressure;Samples;Min_cycle;Max_cycle;Signal;HPM_P1;HPM_P2
2023/03/31 00:00:36;;;;;;;20.65;6.13;;;;;;;;;;4870233;29;20418;-91
2023/03/31 00:03:08;;;;;;;21.52;5.65;;;;;;;;;;4870060;29;20074;-91
2023/03/31 00:05:36;;;;;;;22.00;5.43;;;;;;;;;;4885420;29;20068;-90
2023/03/31 00:08:02;;;;;;;22.42;6.28;;;;;;;;;;4869638;29;20150;-90
2023/03/31 00:10:32;;;;;;;26.42;5.95;;;;;;;;;;4869741;29;20120;-89
2023/03/31 00:12:58;;;;;;;31.85;6.25;;;;;;;;;;4869512;29;20060;-91
2023/03/31 00:15:24;;;;;;;22.50;5.57;;;;;;;;;;4869050;29;20052;-91
2023/03/31 00:17:51;;;;;;;29.45;6.32;;;;;;;;;;4884707;29;20139;-91
2023/03/31 00:20:17;;;;;;;24.15;5.38;;;;;;;;;;4869343;29;20057;-90
2023/03/31 00:22:46;;;;;;;27.50;5.28;;;;;;;;;;4869247;29;20048;-90
2023/03/31 00:25:15;;;;;;;29.42;6.65;;;;;;;;;;4869447;29;20101;-91
2023/03/31 00:27:44;;;;;;;34.33;8.00;;;;;;;;;;4869168;29;20049;-91
2023/03/31 00:30:14;;;;;;;33.35;6.45;;;;;;;;;;4854335;29;20510;-91
2023/03/31 00:32:40;;;;;;;27.75;6.10;;;;;;;;;;4884689;29;20064;-91
2023/03/31 00:35:07;;;;;;;29.88;7.10;;;;;;;;;;4853980;29;20057;-92
2023/03/31 00:37:33;;;;;;;21.33;6.10;;;;;;;;;;4869409;29;20088;-91
2023/03/31 00:40:00;;;;;;;25.40;5.68;;;;;;;;;;4869153;29;20056;-91
2023/03/31 00:42:26;;;;;;;38.22;7.70;;;;;;;;;;4869987;29;20048;-91
2023/03/31 00:45:13;;;;;;;33.60;5.97;;;10.10;99.90;;;;;;4870111;29;20120;-91
2023/03/31 00:47:53;;;;;;;20.45;5.97;;;;;;;;;;4869550;29;20049;-92
2023/03/31 00:50:27;;;;;;;22.52;5.93;;;;;;;;;;4869980;29;20135;-91
2023/03/31 00:52:58;;;;;;;34.53;6.32;;;;;;;;;;4869165;29;20056;-91
2023/03/31 00:55:27;;;;;;;33.13;5.95;;;;;;;;;;4884499;29;20049;-91
2023/03/31 00:57:54;;;;;;;23.02;6.28;;;;;;;;;;4868979;29;20084;-90
2023/03/31 01:00:22;;;;;;;23.58;5.53;;;;;;;;;;4869033;29;20104;-90
2023/03/31 01:02:51;;;;;;;27.95;5.70;;;;;;;;;;4870118;29;20116;-90
2023/03/31 01:05:26;;;;;;;32.58;6.32;;;;;;;;;;4884831;29;20049;-91
2023/03/31 01:07:54;;;;;;;22.65;6.50;;;;;;;;;;4869931;29;20131;-90
2023/03/31 01:10:20;;;;;;;17.25;5.50;;;;;;;;;;4869723;29;20059;-90
2023/03/31 01:12:48;;;;;;;27.48;7.07;;;;;;;;;;4869895;29;20100;-91
2023/03/31 01:15:14;;;;;;;33.40;7.00;;;;;;;;;;4869246;29;20060;-90
2023/03/31 01:17:43;;;;;;;20.38;6.10;;;;;;;;;;4868987;29;20498;-90
2023/03/31 01:20:17;;;;;;;29.55;5.97;;;;;;;;;;4885047;29;20067;-94
2023/03/31 01:23:20;;;;;;;23.52;5.80;;;9.90;99.90;;;;;;4871459;29;20052;-92
2023/03/31 01:26:06;;;;;;;20.05;5.57;;;;;;;;;;4872383;29;20067;-96
2023/03/31 01:28:32;;;;;;;31.33;6.97;;;;;;;;;;4872226;29;20100;-94
2023/03/31 01:31:13;;;;;;;28.02;6.70;;;;;;;;;;4872396;29;20064;-92
2023/03/31 01:34:01;;;;;;;16.08;5.28;;;;;;;;;;4891264;23;20059;-89
2023/03/31 01:36:35;;;;;;;21.58;5.05;;;;;;;;;;4857837;29;20066;-92
2023/03/31 01:42:21;;;;;;;19.48;5.90;;;;;;;;;;4875433;29;20061;-91
2023/03/31 01:45:01;;;;;;;30.17;7.22;;;;;;;;;;4784718;30;20500;-91
2023/03/31 01:51:21;;;;;;;23.50;5.50;;;;;;;;;;4872560;29;20498;-90
2023/03/31 01:54:02;;;;;;;20.55;5.15;;;;;;;;;;4854204;29;20514;-93
2023/03/31 01:56:33;;;;;;;21.40;5.50;;;;;;;;;;4858456;29;20097;-92
2023/03/31 01:59:18;;;;;;;37.08;6.35;;;;;;;;;;4876743;29;20114;-93
2023/03/31 02:01:51;;;;;;;24.30;5.20;;;;;;;;;;4876518;29;20053;-91
2023/03/31 02:04:59;;;;;;;18.23;4.60;;;9.70;99.90;;;;;;4856385;29;20136;-95
2023/03/31 02:07:33;;;;;;;23.67;4.35;;;;;;;;;;4853261;29;20079;-90
2023/03/31 02:10:01;;;;;;;21.42;6.25;;;;;;;;;;4853654;29;20093;-95
2023/03/31 02:12:30;;;;;;;20.05;6.05;;;;;;;;;;4847768;29;20494;-94
2023/03/31 02:14:57;;;;;;;20.77;6.53;;;;;;;;;;4864669;29;20065;-95
2023/03/31 02:17:29;;;;;;;33.97;6.03;;;;;;;;;;4863491;29;20502;-93
2023/03/31 02:19:57;;;;;;;21.60;5.50;;;;;;;;;;4847254;29;20064;-92
2023/03/31 02:22:23;;;;;;;18.25;4.45;;;;;;;;;;4859995;29;20518;-92
2023/03/31 02:24:50;;;;;;;23.02;6.43;;;;;;;;;;4828272;29;20054;-93
2023/03/31 02:27:25;;;;;;;21.45;5.15;;;;;;;;;;4828172;29;20132;-94
2023/03/31 02:29:51;;;;;;;16.40;5.47;;;;;;;;;;4828068;29;20050;-92
2023/03/31 02:32:31;;;;;;;25.85;6.50;;;;;;;;;;4827857;29;20118;-93
2023/03/31 02:34:58;;;;;;;17.90;4.72;;;;;;;;;;4827962;29;20093;-95
2023/03/31 02:37:24;;;;;;;18.85;4.20;;;;;;;;;;4828144;29;20140;-94
2023/03/31 02:39:52;;;;;;;18.30;4.70;;;;;;;;;;4827656;29;20058;-91
2023/03/31 02:42:18;;;;;;;20.67;4.97;;;;;;;;;;4827400;29;20089;-92
2023/03/31 02:44:44;;;;;;;23.92;5.90;;;;;;;;;;4827399;29;20097;-91
2023/03/31 02:47:12;;;;;;;16.52;5.18;;;;;;;;;;4827332;29;20054;-92
2023/03/31 02:49:39;;;;;;;17.00;4.35;;;;;;;;;;4827192;29;20140;-92
2023/03/31 02:52:22;;;;;;;19.75;5.75;;;;;;;;;;4826987;29;20046;-92
2023/03/31 02:54:48;;;;;;;22.88;4.78;;;;;;;;;;4827428;29;20058;-92
2023/03/31 02:57:31;;;;;;;21.42;5.85;;;;;;;;;;4827015;29;20140;-90
2023/03/31 03:00:16;;;;;;;26.20;4.97;;;;;;;;;;4826735;29;20085;-91
2023/03/31 03:03:02;;;;;;;13.75;5.50;;;;;;;;;;4827107;29;20125;-91
2023/03/31 03:05:53;;;;;;;17.13;5.15;;;9.70;99.90;;;;;;4793230;29;20060;-92
2023/03/31 03:08:36;;;;;;;20.27;4.55;;;;;;;;;;4826727;29;20077;-90
2023/03/31 03:11:20;;;;;;;18.30;5.47;;;;;;;;;;4826827;29;20057;-91
2023/03/31 03:13:46;;;;;;;21.42;4.78;;;;;;;;;;4832159;29;20140;-92
2023/03/31 03:16:31;;;;;;;18.98;4.95;;;;;;;;;;4831484;29;20118;-93
2023/03/31 03:18:58;;;;;;;22.73;4.90;;;;;;;;;;4828353;29;20053;-91
2023/03/31 03:21:24;;;;;;;11.45;3.95;;;;;;;;;;4827192;29;20054;-91
2023/03/31 03:23:51;;;;;;;13.35;3.78;;;;;;;;;;4827219;29;20065;-92
2023/03/31 03:26:22;;;;;;;13.35;4.60;;;;;;;;;;4827592;29;20100;-91
2023/03/31 03:28:53;;;;;;;17.52;4.22;;;;;;;;;;4826967;29;20054;-91
2023/03/31 03:31:22;;;;;;;18.25;4.75;;;;;;;;;;4826379;29;20506;-91
2023/03/31 03:33:49;;;;;;;23.95;4.70;;;;;;;;;;4826391;29;20061;-91
2023/03/31 03:36:15;;;;;;;11.48;4.03;;;;;;;;;;4827235;29;20062;-91
2023/03/31 03:38:41;;;;;;;20.92;5.18;;;;;;;;;;4827002;29;20083;-91
2023/03/31 03:41:07;;;;;;;23.23;5.05;;;;;;;;;;4827093;29;20053;-91
2023/03/31 03:43:34;;;;;;;15.63;4.80;;;;;;;;;;4826812;29;20110;-90
2023/03/31 03:46:00;;;;;;;10.55;3.90;;;;;;;;;;4826857;29;20089;-91
2023/03/31 03:48:26;;;;;;;14.70;4.07;;;;;;;;;;4827214;29;20065;-90
2023/03/31 03:50:53;;;;;;;14.02;4.18;;;;;;;;;;4826960;29;20148;-91
2023/03/31 03:53:22;;;;;;;18.70;3.60;;;;;;;;;;4826390;29;20090;-91
2023/03/31 03:55:48;;;;;;;15.48;4.45;;;;;;;;;;4826974;29;20057;-92
2023/03/31 03:58:15;;;;;;;15.65;4.03;;;;;;;;;;4826913;29;20060;-91
2023/03/31 04:00:41;;;;;;;9.93;3.78;;;;;;;;;;4811808;29;20058;-93
2023/03/31 04:03:07;;;;;;;16.08;3.40;;;;;;;;;;4826916;29;20137;-92
2023/03/31 04:05:33;;;;;;;16.45;3.83;;;;;;;;;;4828030;29;20050;-90
2023/03/31 04:07:59;;;;;;;11.70;4.80;;;;;;;;;;4827591;29;20058;-91
2023/03/31 04:10:26;;;;;;;18.30;4.85;;;;;;;;;;4826610;29;20053;-91
2023/03/31 04:12:52;;;;;;;11.02;4.40;;;;;;;;;;4826579;29;20086;-91
2023/03/31 04:15:18;;;;;;;12.50;3.85;;;;;;;;;;4826035;29;20854;-91
2023/03/31 04:17:49;;;;;;;16.35;4.55;;;;;;;;;;4842487;29;20487;-89
2023/03/31 04:20:15;;;;;;;18.13;4.30;;;;;;;;;;4845215;29;20073;-93
2023/03/31 04:22:41;;;;;;;12.77;4.15;;;;;;;;;;4826102;29;20511;-91
2023/03/31 04:25:09;;;;;;;17.92;4.95;;;;;;;;;;4826395;29;20083;-91
2023/03/31 04:27:35;;;;;;;11.93;4.18;;;;;;;;;;4826476;29;20065;-92
2023/03/31 04:30:01;;;;;;;16.73;4.63;;;;;;;;;;4827164;29;20066;-92
2023/03/31 04:32:31;;;;;;;11.68;4.30;;;;;;;;;;4826527;29;20053;-95
2023/03/31 04:35:01;;;;;;;11.50;4.22;;;;;;;;;;4826473;29;20057;-93
2023/03/31 04:37:33;;;;;;;8.73;5.32;;;;;;;;;;4826418;29;20053;-91
2023/03/31 04:40:06;;;;;;;10.70;4.45;;;;;;;;;;4827135;29;20412;-93
2023/03/31 04:42:32;;;;;;;10.88;4.43;;;;;;;;;;4829972;29;20089;-93
2023/03/31 04:44:58;;;;;;;10.88;5.43;;;;;;;;;;4829700;29;20062;-95
2023/03/31 04:47:24;;;;;;;14.65;5.05;;;;;;;;;;4830217;29;20065;-94
2023/03/31 04:49:50;;;;;;;15.13;5.82;;;;;;;;;;4829660;29;20058;-95
2023/03/31 04:52:17;;;;;;;16.23;5.82;;;;;;;;;;4829866;29;20058;-96
2023/03/31 04:54:43;;;;;;;13.95;5.05;;;;;;;;;;4829615;29;20423;-93
2023/03/31 04:57:09;;;;;;;17.02;5.85;;;;;;;;;;4830897;29;20054;-95
2023/03/31 04:59:35;;;;;;;13.07;5.40;;;;;;;;;;4829541;29;20133;-93
2023/03/31 05:02:01;;;;;;;15.98;5.63;;;;;;;;;;4829306;29;20392;-92
2023/03/31 05:04:27;;;;;;;13.55;6.13;;;;;;;;;;4829524;29;20118;-94
2023/03/31 05:06:54;;;;;;;16.95;6.40;;;;;;;;;;4828464;29;20046;-91
2023/03/31 05:09:20;;;;;;;10.27;5.80;;;;;;;;;;4828871;29;20108;-91
2023/03/31 05:11:46;;;;;;;12.38;5.38;;;;;;;;;;4828416;29;20387;-92
2023/03/31 05:14:13;;;;;;;17.20;6.35;;;;;;;;;;4828692;29;20154;-91
2023/03/31 05:16:40;;;;;;;9.93;5.10;;;;;;;;;;4828856;29;20058;-91
2023/03/31 05:19:07;;;;;;;13.15;5.97;;;;;;;;;;4828883;29;20061;-92
2023/03/31 05:21:33;;;;;;;14.52;4.97;;;;;;;;;;4828674;29;20060;-92
2023/03/31 05:23:59;;;;;;;17.35;5.97;;;;;;;;;;4828889;29;20384;-91
2023/03/31 05:26:25;;;;;;;17.98;6.85;;;;;;;;;;4828598;29;20057;-91
2023/03/31 05:28:52;;;;;;;19.52;5.85;;;;;;;;;;4828390;29;20474;-91
2023/03/31 05:31:19;;;;;;;22.85;7.30;;;;;;;;;;4828545;29;20054;-91
2023/03/31 05:33:45;;;;;;;14.43;6.53;;;;;;;;;;4828583;29;20126;-92
2023/03/31 05:36:12;;;;;;;14.57;6.13;;;;;;;;;;4828609;29;20461;-92
2023/03/31 05:38:39;;;;;;;17.52;5.95;;;;;;;;;;4828197;29;20537;-91
2023/03/31 05:41:08;;;;;;;11.68;6.53;;;;;;;;;;4828199;29;20061;-91
2023/03/31 05:43:34;;;;;;;14.00;6.72;;;;;;;;;;4828369;29;20070;-92
2023/03/31 05:46:01;;;;;;;11.13;6.75;;;;;;;;;;4828882;29;20147;-91
2023/03/31 05:48:29;;;;;;;14.77;6.95;;;;;;;;;;4828507;29;20200;-90
2023/03/31 05:50:59;;;;;;;14.45;5.53;;;;;;;;;;4828580;29;20118;-92
2023/03/31 05:53:26;;;;;;;18.40;5.57;;;;;;;;;;4827411;29;20049;-91
2023/03/31 05:55:59;;;;;;;9.15;5.35;;;;;;;;;;4827926;29;20503;-92
2023/03/31 05:58:25;;;;;;;10.53;5.83;;;;;;;;;;4828024;29;20066;-92
2023/03/31 06:01:00;;;;;;;13.88;5.90;;;;;;;;;;4827528;29;20050;-92
2023/03/31 06:03:26;;;;;;;13.55;6.35;;;;;;;;;;4828220;29;20081;-92
2023/03/31 06:05:52;;;;;;;13.90;6.28;;;;;;;;;;4828551;29;20060;-92
2023/03/31 06:08:19;;;;;;;12.70;5.07;;;;;;;;;;4828612;29;20157;-93
2023/03/31 06:10:45;;;;;;;14.57;5.22;;;;;;;;;;4828480;29;20065;-91
2023/03/31 06:13:11;;;;;;;14.43;6.30;;;;;;;;;;4828523;29;20118;-91
2023/03/31 06:15:37;;;;;;;14.05;5.72;;;;;;;;;;4827521;29;20419;-91
2023/03/31 06:18:06;;;;;;;12.02;5.03;;;;;;;;;;4827417;29;20054;-91
2023/03/31 06:20:32;;;;;;;8.27;5.05;;;;;;;;;;4827783;29;20475;-91
2023/03/31 06:22:58;;;;;;;9.13;5.05;;;;;;;;;;4827421;29;20085;-90
2023/03/31 06:25:24;;;;;;;12.40;5.28;;;;;;;;;;4827872;29;20156;-91
2023/03/31 06:27:50;;;;;;;6.07;4.13;;;;;;;;;;4828218;29;20145;-91
2023/03/31 06:30:16;;;;;;;12.93;5.25;;;;;;;;;;4827473;29;20050;-91
2023/03/31 06:32:42;;;;;;;8.82;4.60;;;;;;;;;;4827380;29;20476;-91
2023/03/31 06:35:09;;;;;;;16.08;4.50;;;;;;;;;;4827237;29;20053;-91
2023/03/31 06:37:35;;;;;;;7.78;3.63;;;;;;;;;;4827377;29;20049;-91
2023/03/31 06:40:01;;;;;;;11.23;4.85;;;;;;;;;;4827483;29;20554;-91
2023/03/31 06:42:27;;;;;;;10.27;4.68;;;;;;;;;;4827362;29;20071;-90
2023/03/31 06:44:54;;;;;;;15.45;5.00;;;;;;;;;;4827464;29;20057;-91
2023/03/31 06:47:20;;;;;;;9.23;4.88;;;;;;;;;;4827413;29;20054;-90
2023/03/31 06:49:46;;;;;;;7.70;4.13;;;;;;;;;;4812309;29;20066;-90
2023/03/31 06:52:13;;;;;;;16.20;4.30;;;;;;;;;;4827265;29;20061;-90
2023/03/31 06:54:39;;;;;;;8.95;4.25;;;;;;;;;;4827313;29;20104;-91
2023/03/31 06:57:05;;;;;;;8.07;3.85;;;;;;;;;;4826858;29;20056;-91
2023/03/31 06:59:35;;;;;;;12.27;3.85;;;;;;;;;;4827413;29;20061;-91
2023/03/31 07:02:04;;;;;;;5.40;3.50;;;;;;;;;;4827204;29;20457;-91
2023/03/31 07:04:30;;;;;;;13.02;3.78;;;;;;;;;;4825717;29;20062;-91
2023/03/31 07:09:35;;;;;;;7.05;3.28;;;;;;;;;;4925928;23;20490;-94
2023/03/31 07:12:04;;;;;;;4.43;2.90;;;;;;;;;;4870708;24;20429;-92
2023/03/31 07:14:34;;;;;;;5.53;3.30;;;;;;;;;;4903395;23;20124;-92
2023/03/31 07:17:03;;;;;;;5.88;3.13;;;;;;;;;;4856413;23;20143;-92
2023/03/31 09:48:17;;;;;;;;;;;;;;;;;;;;;
2023/03/31 11:40:41;;;;;;;8.10;3.40;;;12.50;99.90;;;;;;2250298;23;20502;-91
2023/03/31 12:18:25;;;;;;;;;;;;;;;;;;;;;
2023/03/31 13:46:49;;;;;;;4.05;2.15;;;;;;;;;;4862826;29;20165;-89
2023/03/31 14:26:17;;;;;;;3.10;1.75;;;;;;;;;;4805590;29;20126;-89
2023/03/31 14:29:39;;;;;;;1.15;1.05;;;;;;;;;;4880081;23;20049;-89
2023/03/31 14:42:04;;;;;;;5.55;1.65;;;;;;;;;;4949818;23;20053;-89
2023/03/31 14:44:54;;;;;;;6.03;1.75;;;;;;;;;;4831217;29;20593;-88
2023/03/31 14:47:48;;;;;;;2.20;1.38;;;;;;;;;;4826493;29;20508;-89
2023/03/31 14:53:54;;;;;;;4.55;1.77;;;;;;;;;;4841716;29;20408;-88
2023/03/31 14:56:35;;;;;;;7.13;1.60;;;;;;;;;;4826215;29;20086;-88
2023/03/31 15:12:38;;;;;;;4.85;1.83;;;;;;;;;;4849837;29;20054;-90
2023/03/31 15:15:17;;;;;;;5.35;1.40;;;;;;;;;;4833487;29;20056;-87
2023/03/31 15:23:46;;;;;;;6.40;1.98;;;;;;;;;;4968552;23;20071;-89
2023/03/31 15:26:14;;;;;;;7.03;1.70;;;;;;;;;;4862978;29;20522;-90
2023/03/31 15:31:52;;;;;;;3.35;1.23;;;;;;;;;;4863020;29;20045;-90
2023/03/31 15:34:34;;;;;;;2.78;1.30;;;;;;;;;;4848227;29;20125;-90
2023/03/31 15:41:07;;;;;;;4.93;1.35;;;12.50;99.90;;;;;;4880307;29;20109;-89
2023/03/31 15:44:09;;;;;;;4.38;1.40;;;;;;;;;;4865295;29;20136;-90
2023/03/31 15:46:42;;;;;;;1.83;1.50;;;;;;;;;;4848571;29;20057;-90
2023/03/31 15:49:31;;;;;;;6.60;2.13;;;;;;;;;;4847562;29;20122;-90
2023/03/31 15:52:00;;;;;;;1.30;0.95;;;;;;;;;;4847614;29;20057;-90
2023/03/31 15:54:41;;;;;;;10.15;1.42;;;;;;;;;;4847576;29;20112;-89
2023/03/31 15:57:23;;;;;;;2.88;1.42;;;;;;;;;;4847312;29;20056;-90
2023/03/31 15:59:59;;;;;;;2.42;1.33;;;;;;;;;;4847269;29;20084;-89
2023/03/31 16:02:36;;;;;;;3.97;1.60;;;;;;;;;;4848405;29;20132;-89
2023/03/31 16:05:24;;;;;;;3.53;1.70;;;;;;;;;;4863098;29;20057;-90
2023/03/31 16:11:31;;;;;;;4.10;2.10;;;;;;;;;;4879492;29;20406;-89
2023/03/31 16:14:07;;;;;;;;;;;;;;;;;;4864573;29;20108;-90
2023/03/31 16:16:43;;;;;;;;;;;;;;;;;;;;;
2023/03/31 16:22:44;;;;;;;7.85;3.22;;;;;;;;;;4879122;29;20124;-90
2023/03/31 16:32:25;;;;;;;;;;;;;;;;;;;;;
2023/03/31 16:35:05;;;;;;;12.15;2.22;;;;;;;;;;4862270;29;20587;-90
2023/03/31 16:44:23;;;;;;;6.57;2.38;;;;;;;;;;4813705;29;20044;-89
2023/03/31 16:46:50;;;;;;;6.10;2.35;;;;;;;;;;4851090;29;20098;-89
2023/03/31 16:49:16;;;;;;;7.07;2.83;;;;;;;;;;4835495;29;20117;-89
2023/03/31 16:51:44;;;;;;;7.47;2.13;;;;;;;;;;4882745;29;20439;-90
2023/03/31 16:54:11;;;;;;;7.60;2.42;;;;;;;;;;4866125;29;20085;-90
2023/03/31 16:56:40;;;;;;;6.82;2.15;;;;;;;;;;4865224;29;20057;-89
2023/03/31 16:59:07;;;;;;;7.57;2.25;;;;;;;;;;4835310;29;20486;-89
2023/03/31 17:01:40;;;;;;;5.60;2.42;;;;;;;;;;4851074;29;20109;-89
2023/03/31 17:07:47;;;;;;;26.48;3.63;;;;;;;;;;4883614;29;20048;-89
2023/03/31 17:10:13;;;;;;;6.95;3.17;;;;;;;;;;4851230;29;20056;-89
2023/03/31 17:12:49;;;;;;;6.25;2.88;;;;;;;;;;4851921;29;20053;-89
2023/03/31 17:15:16;;;;;;;8.13;3.72;;;;;;;;;;4849472;29;20141;-89
2023/03/31 17:17:53;;;;;;;7.43;3.08;;;;;;;;;;4852082;29;20456;-89
2023/03/31 17:20:20;;;;;;;5.13;2.13;;;;;;;;;;4836323;29;20089;-90
2023/03/31 17:22:55;;;;;;;9.88;2.13;;;;;;;;;;4868395;29;20452;-89
2023/03/31 17:25:35;;;;;;;6.57;2.08;;;;;;;;;;4867507;29;20395;-89
2023/03/31 17:31:42;;;;;;;4.13;2.28;;;;;;;;;;4884028;29;20139;-90
2023/03/31 17:34:09;;;;;;;6.30;2.70;;;;;;;;;;4836402;29;20055;-89
2023/03/31 17:36:35;;;;;;;3.45;2.00;;;;;;;;;;4851703;29;20495;-89
2023/03/31 17:39:05;;;;;;;4.55;2.35;;;;;;;;;;4851976;29;20135;-88
2023/03/31 17:41:36;;;;;;;5.35;2.10;;;;;;;;;;4865804;29;20060;-89
2023/03/31 17:44:03;;;;;;;5.22;2.85;;;;;;;;;;4850414;29;20144;-88
2023/03/31 17:46:29;;;;;;;3.75;2.13;;;;;;;;;;4849530;29;20177;-88
2023/03/31 17:48:57;;;;;;;3.47;2.08;;;;;;;;;;4848876;29;20060;-88
2023/03/31 17:51:23;;;;;;;2.88;1.95;;;;;;;;;;4865176;29;20041;-88
2023/03/31 17:53:49;;;;;;;5.97;2.25;;;;;;;;;;4864843;29;20063;-88
2023/03/31 17:56:16;;;;;;;6.70;2.08;;;;;;;;;;4850094;29;20091;-88
2023/03/31 17:58:46;;;;;;;2.95;1.85;;;;;;;;;;4849468;29;20574;-88
2023/03/31 18:01:16;;;;;;;4.95;2.10;;;;;;;;;;4865345;29;20068;-88
2023/03/31 18:03:45;;;;;;;4.32;2.00;;;;;;;;;;4850421;29;20056;-88
2023/03/31 18:06:12;;;;;;;4.28;2.08;;;;;;;;;;4834095;29;20093;-87
2023/03/31 18:08:39;;;;;;;5.18;2.22;;;;;;;;;;4850034;29;20057;-87
2023/03/31 18:11:07;;;;;;;4.80;2.00;;;;;;;;;;4834670;29;20056;-86
2023/03/31 18:13:35;;;;;;;4.93;1.50;;;;;;;;;;4864747;29;20049;-87
2023/03/31 18:16:06;;;;;;;1.85;0.93;;;;;;;;;;4864761;29;20057;-87
2023/03/31 18:18:35;;;;;;;1.92;1.15;;;;;;;;;;4865147;29;20095;-87
2023/03/31 18:21:09;;;;;;;1.33;1.02;;;;;;;;;;4849080;29;20102;-87
2023/03/31 18:23:38;;;;;;;3.60;0.90;;;;;;;;;;4864974;29;20045;-87
2023/03/31 18:26:08;;;;;;;2.00;0.77;;;;;;;;;;4864581;29;20140;-87
2023/03/31 18:28:35;;;;;;;1.35;1.00;;;;;;;;;;4848722;29;20049;-87
2023/03/31 18:31:05;;;;;;;1.55;0.75;;;;;;;;;;4849261;29;20387;-87
2023/03/31 18:33:32;;;;;;;1.23;1.13;;;;;;;;;;4849118;29;20045;-87
2023/03/31 18:35:58;;;;;;;2.00;1.00;;;;;;;;;;4848891;29;20049;-87
2023/03/31 18:38:26;;;;;;;1.25;1.15;;;;;;;;;;4864709;29;20053;-87
2023/03/31 18:40:52;;;;;;;2.85;1.42;;;;;;;;;;4880767;29;20057;-88
2023/03/31 18:43:21;;;;;;;3.15;2.22;;;;;;;;;;4849391;29;20059;-87
2023/03/31 18:46:00;;;;;;;5.05;1.85;;;;;;;;;;4849601;29;20566;-88
2023/03/31 18:48:45;;;;;;;3.38;2.17;;;;;;;;;;4849149;29;20057;-87
2023/03/31 18:51:16;;;;;;;2.40;2.10;;;;;;;;;;4849300;29;20140;-88
2023/03/31 18:53:45;;;;;;;2.58;1.80;;;;;;;;;;4849341;29;20088;-88
2023/03/31 18:56:11;;;;;;;2.80;1.70;;;;;;;;;;4849134;29;20053;-88
2023/03/31 18:58:38;;;;;;;3.75;2.35;;;;;;;;;;4881752;29;20106;-88
2023/03/31 19:01:04;;;;;;;1.98;1.77;;;;;;;;;;4864252;29;20059;-88
2023/03/31 19:03:33;;;;;;;2.15;1.95;;;;;;;;;;4848838;29;20053;-88
2023/03/31 19:06:09;;;;;;;5.90;2.30;;;;;;;;;;4834575;29;20061;-88
2023/03/31 19:08:36;;;;;;;2.40;2.08;;;;;;;;;;4848676;29;20052;-88
2023/03/31 19:11:15;;;;;;;2.47;2.28;;;;;;;;;;4864027;29;20084;-89
2023/03/31 19:13:42;;;;;;;2.45;2.00;;;;;;;;;;4849090;29;20141;-88
2023/03/31 19:16:14;;;;;;;3.80;2.65;;;;;;;;;;4848874;29;20490;-89
2023/03/31 19:18:42;;;;;;;3.08;2.35;;;;;;;;;;4848960;29;20092;-89
2023/03/31 19:21:18;;;;;;;5.63;2.63;;;;;;;;;;4863787;29;20056;-89
2023/03/31 19:23:52;;;;;;;1.88;1.70;;;;;;;;;;4848610;29;20055;-89
2023/03/31 19:26:18;;;;;;;;;;;10.80;99.90;;;;;;4849196;29;20061;-89
2023/03/31 19:28:47;;;;;;;3.05;2.10;;;;;;;;;;4848276;29;19978;-89
2023/03/31 19:31:17;;;;;;;2.30;1.90;;;;;;;;;;4849134;29;20115;-89
2023/03/31 19:33:43;;;;;;;2.72;2.25;;;;;;;;;;4864032;29;20627;-89
2023/03/31 19:36:09;;;;;;;2.60;2.30;;;;;;;;;;4848524;29;20049;-89
2023/03/31 19:38:36;;;;;;;2.88;2.53;;;;;;;;;;4864082;29;20053;-89
2023/03/31 19:41:05;;;;;;;5.10;2.67;;;;;;;;;;4864208;29;20059;-89
2023/03/31 19:43:34;;;;;;;3.75;2.45;;;;;;;;;;4863869;29;20406;-88
2023/03/31 19:46:00;;;;;;;3.53;2.80;;;;;;;;;;4848179;29;20052;-88
2023/03/31 19:48:32;;;;;;;3.20;2.90;;;;;;;;;;4848744;29;20057;-88
2023/03/31 19:50:59;;;;;;;3.95;2.90;;;;;;;;;;4864113;29;20459;-88
2023/03/31 19:53:26;;;;;;;4.72;2.83;;;;;;;;;;4863416;29;20121;-88
2023/03/31 19:55:56;;;;;;;3.63;2.97;;;;;;;;;;4862809;29;20509;-88
2023/03/31 19:58:25;;;;;;;7.20;3.60;;;;;;;;;;4847769;29;20131;-88
2023/03/31 20:00:56;;;;;;;4.97;3.17;;;;;;;;;;4848408;29;20503;-87
2023/03/31 20:03:23;;;;;;;5.35;3.28;;;;;;;;;;4848109;29;20053;-87
2023/03/31 20:05:50;;;;;;;6.82;3.30;;;;;;;;;;4848194;29;20136;-88
2023/03/31 20:08:17;;;;;;;6.80;4.35;;;;;;;;;;4833540;29;20057;-88
2023/03/31 20:10:43;;;;;;;8.43;4.10;;;;;;;;;;4848241;29;20056;-88
2023/03/31 20:13:10;;;;;;;8.63;4.75;;;;;;;;;;4851705;29;20049;-89
2023/03/31 20:15:36;;;;;;;6.85;3.47;;;;;;;;;;4866893;29;20049;-88
2023/03/31 20:18:05;;;;;;;4.18;3.58;;;;;;;;;;4851742;29;20049;-89
2023/03/31 20:20:34;;;;;;;4.72;3.50;;;;;;;;;;4836324;29;20421;-88
2023/03/31 20:23:02;;;;;;;6.15;3.85;;;;;;;;;;4851857;29;20521;-88
2023/03/31 20:25:28;;;;;;;11.13;4.78;;;;;;;;;;4836432;29;20067;-89
2023/03/31 20:27:57;;;;;;;7.45;5.10;;;;;;;;;;4851970;29;20053;-89
2023/03/31 20:30:23;;;;;;;10.02;4.18;;;;;;;;;;4851845;29;20147;-89
2023/03/31 20:32:55;;;;;;;7.55;4.78;;;;;;;;;;4883636;29;20049;-89
2023/03/31 20:35:22;;;;;;;6.38;4.20;;;;;;;;;;4851502;29;20092;-89
2023/03/31 20:37:48;;;;;;;4.60;3.80;;;;;;;;;;4851944;29;20057;-89
2023/03/31 20:40:17;;;;;;;4.97;4.40;;;;;;;;;;4883962;29;20053;-89
2023/03/31 20:42:49;;;;;;;4.95;3.50;;;;;;;;;;4867154;29;20454;-89
2023/03/31 20:45:23;;;;;;;6.00;4.30;;;;;;;;;;4837274;29;20090;-89
2023/03/31 20:47:49;;;;;;;;;;;10.60;99.90;;;;;;4867514;29;20057;-89
2023/03/31 20:50:16;;;;;;;5.13;4.00;;;;;;;;;;4851267;29;19975;-89
2023/03/31 20:52:46;;;;;;;8.45;4.43;;;;;;;;;;4866468;29;20057;-89
2023/03/31 20:55:12;;;;;;;8.40;4.00;;;;;;;;;;4866221;29;20064;-89
2023/03/31 20:57:38;;;;;;;8.77;3.35;;;;;;;;;;4851119;29;20068;-88
2023/03/31 21:00:06;;;;;;;5.30;3.60;;;;;;;;;;4851012;29;20144;-89
2023/03/31 21:02:32;;;;;;;4.85;3.75;;;;;;;;;;4851131;29;20111;-89
2023/03/31 21:04:58;;;;;;;3.88;3.38;;;;;;;;;;4883048;29;20201;-89
2023/03/31 21:07:24;;;;;;;9.90;3.78;;;;;;;;;;4866554;29;20057;-88
2023/03/31 21:09:50;;;;;;;4.38;3.20;;;;;;;;;;4850551;29;20064;-89
2023/03/31 21:12:18;;;;;;;7.63;3.50;;;;;;;;;;4866136;29;20455;-88
2023/03/31 21:14:44;;;;;;;5.85;3.90;;;;;;;;;;4850647;29;20053;-88
2023/03/31 21:17:10;;;;;;;7.15;3.22;;;;;;;;;;4866228;29;20061;-88
2023/03/31 21:19:36;;;;;;;5.95;3.55;;;;;;;;;;4850934;29;20063;-89
2023/03/31 21:22:03;;;;;;;5.55;3.13;;;;;;;;;;4866434;29;20089;-89
2023/03/31 21:24:29;;;;;;;6.97;4.00;;;;;;;;;;4865861;29;20061;-88
2023/03/31 21:26:58;;;;;;;4.50;3.47;;;;;;;;;;4867457;29;20053;-88
2023/03/31 21:29:24;;;;;;;3.35;3.05;;;;;;;;;;4867506;29;20080;-88
2023/03/31 21:31:50;;;;;;;5.70;3.30;;;;;;;;;;4851615;29;20057;-88
2023/03/31 21:34:17;;;;;;;4.35;3.47;;;;;;;;;;4883821;29;20049;-88
2023/03/31 21:36:43;;;;;;;5.88;2.80;;;;;;;;;;4884049;29;20061;-88
2023/03/31 21:39:10;;;;;;;3.90;3.15;;;;;;;;;;4837623;29;20498;-88
2023/03/31 21:41:38;;;;;;;5.20;3.63;;;;;;;;;;4851816;29;20064;-88
2023/03/31 21:44:05;;;;;;;7.47;3.78;;;;;;;;;;4867820;29;20057;-88
2023/03/31 21:46:32;;;;;;;4.50;3.70;;;;;;;;;;4854109;29;20109;-89
2023/03/31 21:48:58;;;;;;;4.07;3.30;;;;;;;;;;4869231;29;20053;-92
2023/03/31 21:51:25;;;;;;;3.88;3.05;;;;;;;;;;4868758;29;20075;-93
2023/03/31 21:53:54;;;;;;;3.85;3.20;;;;;;;;;;4853472;29;20049;-91
2023/03/31 21:56:20;;;;;;;5.90;3.40;;;;;;;;;;4853135;29;20045;-94
2023/03/31 21:58:46;;;;;;;4.07;3.20;;;;;;;;;;4852974;29;20052;-91
2023/03/31 22:01:12;;;;;;;5.50;3.25;;;;;;;;;;4852198;29;20053;-92
2023/03/31 22:03:41;;;;;;;3.28;2.83;;;;;;;;;;4852803;29;20057;-91
2023/03/31 22:06:07;;;;;;;5.43;3.50;;;;;;;;;;4868377;29;20049;-93
2023/03/31 22:08:35;;;;;;;8.05;3.38;;;;;;;;;;4884468;29;20097;-95
2023/03/31 22:11:03;;;;;;;4.07;3.42;;;;;;;;;;4884537;29;20049;-92
2023/03/31 22:13:29;;;;;;;4.32;3.28;;;;;;;;;;4852365;29;20056;-93
2023/03/31 22:15:56;;;;;;;4.28;3.10;;;;;;;;;;4852469;29;20092;-94
2023/03/31 22:18:22;;;;;;;4.35;3.90;;;;;;;;;;4868479;29;20052;-94
2023/03/31 22:20:48;;;;;;;4.18;2.95;;;;;;;;;;4868534;29;20061;-93
2023/03/31 22:23:15;;;;;;;7.45;3.47;;;;;;;;;;4884678;29;20085;-93
2023/03/31 22:25:41;;;;;;;3.95;3.22;;;;;;;;;;4852245;29;20116;-92
2023/03/31 22:28:08;;;;;;;6.68;3.30;;;;;;;;;;4884089;29;20487;-92
2023/03/31 22:30:35;;;;;;;7.82;3.50;;;;;;;;;;4852722;29;20504;-90
2023/03/31 22:33:01;;;;;;;5.35;3.85;;;;;;;;;;4851980;29;20093;-94
2023/03/31 22:35:27;;;;;;;9.52;4.10;;;;;;;;;;4852324;29;20134;-95
2023/03/31 22:37:54;;;;;;;4.15;3.33;;;;;;;;;;4866537;29;20045;-90
2023/03/31 22:40:20;;;;;;;4.50;3.80;;;;;;;;;;4864539;29;20113;-89
2023/03/31 22:42:46;;;;;;;7.47;3.97;;;;;;;;;;4864561;29;20049;-92
2023/03/31 22:45:12;;;;;;;9.35;4.13;;;;;;;;;;4849351;29;20057;-90
2023/03/31 22:47:41;;;;;;;5.47;4.00;;;;;;;;;;4848893;29;20082;-90
2023/03/31 22:50:07;;;;;;;5.95;4.05;;;;;;;;;;4849683;29;20128;-90
2023/03/31 22:52:33;;;;;;;4.38;3.88;;;;;;;;;;4848856;29;20053;-90
2023/03/31 22:54:59;;;;;;;5.03;4.38;;;;;;;;;;4864044;29;20507;-89
2023/03/31 22:57:26;;;;;;;5.60;3.88;;;;;;;;;;4848690;29;20522;-89
2023/03/31 22:59:52;;;;;;;6.43;4.60;;;;;;;;;;4863840;29;20053;-88
2023/03/31 23:02:18;;;;;;;5.55;3.90;;;;;;;;;;4848637;29;20053;-89
2023/03/31 23:04:44;;;;;;;6.32;4.47;;;;;;;;;;4863932;29;20136;-89
2023/03/31 23:07:11;;;;;;;6.45;4.28;;;;;;;;;;4863961;29;20057;-90